Havre City County Airport Havre US
ICAO: KHVR
IATA: HVR
Category: Medium
Scheduled Services: No

Elevation: 2591 ft
TransAlt. 18000 ft.

Airport Communications:
ASOS:135.225
GREAT FALLS RDO:123.65
CTAF/UNICOM:122.8

KHVR Zoom In..

Runways:

(A) RW 03 length 3699 ft width 60 ft
---- / hdg 32

(B) RW 08 length 5205 ft width 100 ft
---- / hdg 77

(C) RW 21 length 3699 ft width 60 ft
---- / hdg 212

(D) RW 26 length 5205 ft width 100 ft
---- / hdg 257

Location; KHVR
Day. 23 / Time. 21.53 Zulu
* Altimeter: 30.06
* Temperature: -01° c. -30.2°f.
* Wind from: 230° Speed 07 kn.
Dewpoint: -04° c.
Visibility: 10 Statute Miles.
Clouds: Clear (automated report).

KHVR 232153Z AUTO 23007KT 10SM CLR M01/M04 A3006 RMK AO2 SLP211 T10111039


Wind From 230°
Speed 07 kn.

YouTube Music Video
 
jpsmedia.com for Web Design  worldairports.se 2018   terms of use